Terminal Aerodrome Forecast
Issued by NWS

Home | Current Version | Previous Version | Text Only | Print | Product List | Glossary On
Versions: 1 2 3 4 5 6 7 8 9 10 11 12 13 14
000
FTUS42 KGSP 310500
TAFAND
TAF
KAND 310534Z 3106/0106 06004KT P6SM BKN060
     FM311100 06004KT P6SM VCSH BKN017
     FM311600 08006KT P6SM VCTS BKN040CB
     FM312300 06007KT P6SM VCTS OVC024CB=

USA.gov is the U.S. government's official web portal to all federal, state and local government web resources and services.